createdAt,value
2023-05-21T00:01:49.810Z,15.50
2023-05-21T00:04:17.714Z,15.50
2023-05-21T00:06:46.895Z,15.50
2023-05-21T00:09:14.763Z,15.60
2023-05-21T00:11:42.572Z,15.70
2023-05-21T00:14:10.394Z,15.70
2023-05-21T00:16:38.372Z,15.70
2023-05-21T00:19:06.418Z,15.70
2023-05-21T00:21:34.345Z,15.70
2023-05-21T00:24:03.518Z,15.40
2023-05-21T00:26:31.342Z,15.40
2023-05-21T00:28:59.230Z,15.50
2023-05-21T00:31:27.103Z,15.40
2023-05-21T00:33:54.941Z,15.20
2023-05-21T00:36:23.899Z,15.30
2023-05-21T00:38:52.646Z,15.40
2023-05-21T00:41:22.940Z,15.30
2023-05-21T00:43:50.711Z,15.20
2023-05-21T00:46:20.878Z,15.10
2023-05-21T00:48:50.385Z,15.00
2023-05-21T00:51:21.475Z,15.00
2023-05-21T00:53:51.422Z,15.10
2023-05-21T00:56:22.667Z,15.00
2023-05-21T00:58:51.822Z,15.10
2023-05-21T01:01:20.040Z,15.00
2023-05-21T01:03:48.756Z,14.90
2023-05-21T01:06:17.014Z,14.90
2023-05-21T01:08:45.385Z,15.20
2023-05-21T01:11:14.900Z,15.20
2023-05-21T01:13:44.816Z,15.00
2023-05-21T01:16:13.495Z,15.00
2023-05-21T01:18:43.557Z,15.00
2023-05-21T01:21:11.917Z,15.10
2023-05-21T01:23:41.341Z,15.20
2023-05-21T01:26:12.856Z,15.20
2023-05-21T01:28:40.729Z,15.50
2023-05-21T01:31:17.586Z,15.40
2023-05-21T01:33:50.838Z,15.40
2023-05-21T01:36:26.156Z,15.50
2023-05-21T01:39:02.204Z,15.50
2023-05-21T01:41:34.054Z,15.40
2023-05-21T01:44:03.002Z,15.20
2023-05-21T01:46:35.749Z,15.10
2023-05-21T01:49:04.977Z,15.10
2023-05-21T01:51:33.107Z,15.30
2023-05-21T01:54:02.664Z,15.30
2023-05-21T01:56:33.604Z,15.20
2023-05-21T01:59:01.501Z,15.30
2023-05-21T02:01:30.353Z,15.00
2023-05-21T02:03:58.780Z,15.10
2023-05-21T02:06:26.706Z,15.20
2023-05-21T02:08:55.493Z,14.80
2023-05-21T02:11:24.879Z,14.70
2023-05-21T02:13:52.723Z,14.40
2023-05-21T02:16:22.348Z,14.40
2023-05-21T02:18:51.463Z,14.80
2023-05-21T02:21:20.542Z,15.10
2023-05-21T02:23:48.374Z,14.50
2023-05-21T02:26:17.385Z,14.50
2023-05-21T02:28:46.539Z,14.10
2023-05-21T02:31:14.523Z,14.30
2023-05-21T02:33:42.768Z,14.80
2023-05-21T02:36:12.987Z,15.00
2023-05-21T02:38:43.409Z,15.10
2023-05-21T02:41:11.790Z,15.10
2023-05-21T02:43:39.575Z,14.90
2023-05-21T02:46:08.997Z,14.70
2023-05-21T02:48:36.818Z,14.30
2023-05-21T02:51:04.765Z,13.90
2023-05-21T02:53:32.585Z,14.40
2023-05-21T02:56:00.393Z,14.70
2023-05-21T02:58:28.183Z,14.90
2023-05-21T03:00:56.067Z,14.90
2023-05-21T03:03:25.272Z,14.90
2023-05-21T03:05:53.123Z,14.90
2023-05-21T03:08:21.368Z,14.90
2023-05-21T03:10:49.794Z,14.90
2023-05-21T03:13:17.634Z,14.50
2023-05-21T03:15:46.504Z,14.60
2023-05-21T03:18:14.487Z,14.40
2023-05-21T03:20:45.342Z,14.10
2023-05-21T03:23:16.387Z,14.10
2023-05-21T03:25:45.830Z,14.10
2023-05-21T03:28:13.714Z,14.50
2023-05-21T03:30:41.864Z,14.70
2023-05-21T03:33:11.108Z,14.50
2023-05-21T03:35:39.108Z,14.40
2023-05-21T03:38:08.547Z,14.60
2023-05-21T03:40:36.454Z,14.60
2023-05-21T03:43:04.258Z,14.30
2023-05-21T03:45:32.091Z,14.30
2023-05-21T03:48:01.498Z,14.50
2023-05-21T03:50:29.419Z,14.60
2023-05-21T03:52:57.247Z,14.60
2023-05-21T03:55:26.426Z,14.60
2023-05-21T03:57:54.231Z,14.50
2023-05-21T04:00:22.028Z,14.40
2023-05-21T04:02:49.986Z,14.50
2023-05-21T04:05:17.836Z,14.50
2023-05-21T04:07:46.277Z,14.50
2023-05-21T04:10:15.277Z,14.50
2023-05-21T04:12:44.515Z,14.40
2023-05-21T04:15:12.734Z,14.40
2023-05-21T04:17:41.505Z,14.50
2023-05-21T04:20:11.842Z,14.60
2023-05-21T04:22:39.690Z,14.70
2023-05-21T04:25:07.924Z,14.70
2023-05-21T04:27:36.063Z,14.70
2023-05-21T04:30:06.428Z,14.70
2023-05-21T04:32:34.933Z,14.60
2023-05-21T04:35:03.916Z,14.50
2023-05-21T04:37:34.965Z,14.60
2023-05-21T04:40:02.908Z,14.60
2023-05-21T04:42:32.823Z,14.70
2023-05-21T04:45:00.658Z,14.70
2023-05-21T04:47:35.309Z,14.70
2023-05-21T04:50:04.288Z,14.80
2023-05-21T04:52:32.157Z,14.80
2023-05-21T04:54:59.940Z,14.90
2023-05-21T04:57:28.109Z,14.70
2023-05-21T04:59:56.227Z,14.30
2023-05-21T05:02:24.229Z,14.20
2023-05-21T05:04:53.431Z,14.30
2023-05-21T05:07:21.496Z,14.10
2023-05-21T05:09:49.318Z,13.90
2023-05-21T05:12:17.198Z,14.30
2023-05-21T05:14:45.069Z,14.30
2023-05-21T05:17:15.565Z,14.40
2023-05-21T05:19:43.393Z,14.60
2023-05-21T05:22:13.611Z,14.60
2023-05-21T05:24:41.719Z,14.80
2023-05-21T05:27:09.587Z,15.00
2023-05-21T05:29:37.523Z,15.10
2023-05-21T05:32:05.965Z,15.10
2023-05-21T05:34:33.733Z,15.00
2023-05-21T05:37:02.898Z,15.00
2023-05-21T05:39:32.056Z,15.30
2023-05-21T05:41:59.925Z,15.50
2023-05-21T05:44:27.893Z,15.50
2023-05-21T05:46:55.983Z,15.50
2023-05-21T05:49:23.805Z,15.60
2023-05-21T05:51:51.627Z,15.60
2023-05-21T05:54:19.462Z,15.50
2023-05-21T05:56:48.654Z,15.40
2023-05-21T05:59:16.861Z,15.60
2023-05-21T06:01:44.771Z,15.70
2023-05-21T06:04:12.581Z,15.40
2023-05-21T06:06:40.769Z,15.60
2023-05-21T06:09:08.569Z,15.60
2023-05-21T06:11:36.397Z,15.50
2023-05-21T06:14:05.561Z,15.40
2023-05-21T06:16:33.898Z,15.30
2023-05-21T06:19:01.882Z,15.50
2023-05-21T06:21:29.781Z,15.60
2023-05-21T06:23:57.618Z,15.70
2023-05-21T06:26:25.448Z,15.80
2023-05-21T06:28:53.300Z,16.00
2023-05-21T06:31:22.752Z,16.10
2023-05-21T06:33:50.860Z,16.10
2023-05-21T06:36:18.985Z,16.30
2023-05-21T06:38:46.793Z,16.50
2023-05-21T06:41:14.603Z,16.60
2023-05-21T06:43:42.434Z,16.70
2023-05-21T06:46:10.347Z,17.00
2023-05-21T06:48:39.559Z,17.20
2023-05-21T06:51:07.511Z,17.20
2023-05-21T06:53:35.366Z,17.40
2023-05-21T06:56:03.205Z,17.70
2023-05-21T06:58:31.338Z,18.00
2023-05-21T07:00:59.514Z,18.20
2023-05-21T07:03:27.594Z,18.50
2023-05-21T07:05:57.895Z,18.50
2023-05-21T07:08:25.784Z,18.60
2023-05-21T07:10:53.590Z,18.40
2023-05-21T07:13:21.395Z,18.30
2023-05-21T07:15:49.377Z,18.40
2023-05-21T07:18:17.624Z,18.60
2023-05-21T07:20:45.688Z,18.70
2023-05-21T07:23:14.890Z,19.10
2023-05-21T07:25:42.713Z,19.00
2023-05-21T07:28:10.532Z,19.20
2023-05-21T07:30:38.306Z,19.40
2023-05-21T07:33:06.327Z,19.90
2023-05-21T07:35:34.458Z,20.20
2023-05-21T07:38:02.457Z,20.40
2023-05-21T07:40:31.657Z,20.20
2023-05-21T07:42:59.526Z,20.70
2023-05-21T07:45:27.326Z,20.50
2023-05-21T07:47:55.191Z,20.90
2023-05-21T07:50:23.129Z,21.10
2023-05-21T07:52:51.034Z,20.90
2023-05-21T07:55:18.879Z,20.30
2023-05-21T07:57:48.022Z,20.50
2023-05-21T08:00:16.635Z,20.80
2023-05-21T08:02:44.671Z,20.90
2023-05-21T08:05:13.004Z,20.50
2023-05-21T08:07:41.131Z,20.30
2023-05-21T08:10:09.827Z,20.40
2023-05-21T08:12:37.763Z,20.40
2023-05-21T08:15:07.880Z,20.20
2023-05-21T08:17:35.779Z,19.70
2023-05-21T08:20:04.646Z,19.70
2023-05-21T08:22:32.463Z,19.70
2023-05-21T08:25:00.252Z,19.60
2023-05-21T08:27:28.160Z,19.60
2023-05-21T08:29:56.065Z,19.60
2023-05-21T08:32:25.253Z,19.60
2023-05-21T08:34:53.745Z,19.70
2023-05-21T08:37:22.644Z,19.60
2023-05-21T08:39:50.496Z,19.40
2023-05-21T08:42:36.932Z,19.50
2023-05-21T08:45:07.598Z,19.40
2023-05-21T08:47:37.798Z,19.60
2023-05-21T08:50:06.613Z,19.70
2023-05-21T08:52:34.447Z,19.60
2023-05-21T08:55:04.413Z,19.60
2023-05-21T08:57:32.688Z,19.80
2023-05-21T09:00:01.719Z,19.70
2023-05-21T09:02:34.079Z,19.80
2023-05-21T09:05:04.803Z,19.90
2023-05-21T09:07:35.229Z,19.90
2023-05-21T09:10:08.221Z,20.00
2023-05-21T09:12:36.309Z,20.00
2023-05-21T09:15:05.122Z,20.20
2023-05-21T09:17:32.966Z,20.40
2023-05-21T09:20:14.779Z,20.50
2023-05-21T09:22:44.075Z,20.70
2023-05-21T09:25:12.816Z,20.50
2023-05-21T09:27:40.956Z,20.90
2023-05-21T09:30:12.674Z,21.20
2023-05-21T09:32:41.439Z,21.20
2023-05-21T09:35:12.479Z,21.40
2023-05-21T09:37:43.659Z,21.40
2023-05-21T09:40:13.655Z,21.50
2023-05-21T09:42:42.165Z,21.70
2023-05-21T09:45:11.372Z,22.30
2023-05-21T09:47:43.849Z,22.40
2023-05-21T09:50:14.231Z,22.20
2023-05-21T09:52:42.353Z,22.50
2023-05-21T09:55:13.397Z,22.90
2023-05-21T09:57:46.476Z,23.10
2023-05-21T10:00:21.885Z,23.20
2023-05-21T10:02:51.976Z,23.10
2023-05-21T10:05:21.638Z,22.80
2023-05-21T10:07:51.594Z,22.70
2023-05-21T10:10:21.403Z,22.60
2023-05-21T10:12:53.077Z,22.60
2023-05-21T10:15:25.073Z,22.40
2023-05-21T10:17:54.055Z,22.10
2023-05-21T10:20:23.881Z,22.20
2023-05-21T10:22:52.127Z,22.30
2023-05-21T10:25:21.231Z,23.00
2023-05-21T10:27:49.888Z,23.70
2023-05-21T10:30:19.693Z,23.80
2023-05-21T10:32:49.662Z,23.60
2023-05-21T10:35:18.459Z,23.80
2023-05-21T10:37:47.704Z,23.80
2023-05-21T10:40:15.638Z,24.10
2023-05-21T10:43:28.264Z,23.80
2023-05-21T10:46:15.493Z,23.70
2023-05-21T10:48:59.329Z,23.70
2023-05-21T10:51:30.471Z,23.60
2023-05-21T10:54:28.480Z,23.70
2023-05-21T10:57:08.589Z,23.70
2023-05-21T10:59:43.223Z,24.00
2023-05-21T11:02:13.615Z,24.30
2023-05-21T11:04:43.278Z,24.10
2023-05-21T11:07:11.931Z,24.00
2023-05-21T11:09:41.251Z,24.00
2023-05-21T11:12:09.775Z,24.00
2023-05-21T11:14:40.181Z,24.00
2023-05-21T11:17:13.540Z,23.90
2023-05-21T11:19:42.351Z,23.80
2023-05-21T11:22:21.265Z,23.70
2023-05-21T11:24:51.491Z,23.70
2023-05-21T11:27:34.314Z,23.70
2023-05-21T11:30:05.752Z,24.00
2023-05-21T11:32:33.661Z,24.00
2023-05-21T11:35:02.976Z,23.90
2023-05-21T11:37:33.387Z,23.90
2023-05-21T11:40:23.854Z,24.20
2023-05-21T11:42:53.596Z,24.20
2023-05-21T11:45:23.000Z,24.00
2023-05-21T11:47:51.878Z,24.00
2023-05-21T11:50:20.559Z,23.90
2023-05-21T11:52:49.659Z,23.90
2023-05-21T11:55:25.865Z,23.90
2023-05-21T11:57:56.029Z,23.90
2023-05-21T12:00:24.302Z,23.80
2023-05-21T12:02:53.457Z,23.50
2023-05-21T12:05:22.712Z,23.90
2023-05-21T12:07:51.120Z,24.00
2023-05-21T12:10:24.398Z,23.90
2023-05-21T12:12:55.784Z,24.00
2023-05-21T12:15:25.715Z,24.10
2023-05-21T12:17:53.679Z,24.30
2023-05-21T12:20:21.757Z,24.40
2023-05-21T12:22:50.411Z,24.40
2023-05-21T12:25:20.464Z,24.40
2023-05-21T12:27:52.531Z,24.40
2023-05-21T12:30:21.130Z,24.70
2023-05-21T12:32:50.235Z,24.80
2023-05-21T12:35:24.892Z,25.00
2023-05-21T12:37:53.133Z,25.00
2023-05-21T12:40:22.105Z,25.00
2023-05-21T12:42:52.083Z,25.10
2023-05-21T12:45:21.990Z,25.30
2023-05-21T12:47:55.844Z,25.20
2023-05-21T12:50:24.206Z,25.20
2023-05-21T12:52:55.854Z,25.60
2023-05-21T12:55:25.380Z,25.60
2023-05-21T12:58:03.182Z,25.60
2023-05-21T13:00:31.334Z,25.40
2023-05-21T13:03:00.833Z,25.50
2023-05-21T13:05:28.810Z,25.00
2023-05-21T13:07:56.640Z,24.60
2023-05-21T13:10:24.590Z,24.50
2023-05-21T13:12:52.440Z,24.50
2023-05-21T13:15:21.978Z,25.00
2023-05-21T13:17:51.477Z,25.50
2023-05-21T13:20:21.674Z,25.90
2023-05-21T13:22:52.249Z,25.80
2023-05-21T13:25:21.706Z,25.70
2023-05-21T13:27:50.780Z,25.70
2023-05-21T13:30:18.939Z,25.00
2023-05-21T13:32:49.169Z,25.00
2023-05-21T13:35:17.616Z,25.00
2023-05-21T13:37:45.944Z,25.00
2023-05-21T13:40:16.031Z,24.80
2023-05-21T13:42:44.977Z,24.90
2023-05-21T13:45:15.517Z,25.40
2023-05-21T13:47:44.332Z,25.70
2023-05-21T13:50:13.938Z,25.80
2023-05-21T13:52:42.177Z,25.90
2023-05-21T13:55:11.722Z,25.90
2023-05-21T13:57:40.563Z,25.90
2023-05-21T14:00:12.391Z,26.00
2023-05-21T14:02:40.422Z,26.00
2023-05-21T14:05:08.939Z,25.90
2023-05-21T14:07:39.753Z,25.60
2023-05-21T14:10:08.503Z,25.50
2023-05-21T14:12:36.570Z,25.60
2023-05-21T14:15:04.826Z,25.80
2023-05-21T14:17:32.684Z,25.80
2023-05-21T14:20:00.597Z,26.00
2023-05-21T14:22:28.424Z,25.60
2023-05-21T14:24:57.613Z,25.60
2023-05-21T14:27:25.513Z,25.90
2023-05-21T14:29:53.460Z,25.40
2023-05-21T14:32:21.515Z,25.50
2023-05-21T14:34:49.508Z,25.30
2023-05-21T14:37:17.387Z,25.40
2023-05-21T14:39:45.388Z,25.30
2023-05-21T14:42:14.671Z,25.30
2023-05-21T14:44:42.457Z,25.30
2023-05-21T14:47:10.313Z,25.50
2023-05-21T14:49:38.147Z,25.30
2023-05-21T14:52:06.812Z,25.30
2023-05-21T14:54:34.607Z,25.10
2023-05-21T14:57:02.415Z,25.10
2023-05-21T14:59:31.574Z,25.10
2023-05-21T15:01:59.474Z,25.00
2023-05-21T15:04:27.445Z,25.10
2023-05-21T15:06:55.302Z,25.00
2023-05-21T15:09:23.147Z,25.20
2023-05-21T15:11:53.352Z,25.00
2023-05-21T15:14:21.326Z,24.80
2023-05-21T15:16:52.332Z,25.00
2023-05-21T15:19:20.508Z,24.90
2023-05-21T15:21:48.330Z,24.80
2023-05-21T15:24:16.129Z,24.50
2023-05-21T15:26:43.953Z,24.50
2023-05-21T15:29:11.787Z,24.30
2023-05-21T15:31:39.650Z,24.30
2023-05-21T15:34:08.975Z,24.40
2023-05-21T15:36:36.865Z,24.30
2023-05-21T15:39:05.993Z,24.30
2023-05-21T15:41:37.358Z,24.30
2023-05-21T15:44:05.806Z,24.30
2023-05-21T15:46:33.712Z,24.40
2023-05-21T15:49:01.632Z,24.20
2023-05-21T15:51:30.886Z,24.00
2023-05-21T15:53:58.835Z,24.10
2023-05-21T15:56:27.227Z,24.10
2023-05-21T15:58:58.081Z,24.10
2023-05-21T16:01:27.096Z,24.00
2023-05-21T16:03:55.065Z,24.00
2023-05-21T16:06:24.592Z,23.80
2023-05-21T16:08:54.416Z,23.70
2023-05-21T16:11:22.472Z,23.80
2023-05-21T16:13:50.403Z,23.90
2023-05-21T16:16:18.319Z,23.90
2023-05-21T16:18:46.472Z,23.90
2023-05-21T16:21:14.423Z,23.90
2023-05-21T16:23:42.354Z,23.90
2023-05-21T16:26:11.939Z,23.70
2023-05-21T16:28:39.897Z,23.50
2023-05-21T16:31:08.644Z,23.60
2023-05-21T16:33:37.273Z,23.60
2023-05-21T16:36:05.836Z,23.50
2023-05-21T16:38:33.694Z,23.60
2023-05-21T16:41:01.653Z,23.50
2023-05-21T16:43:30.869Z,23.50
2023-05-21T16:45:58.794Z,23.50
2023-05-21T16:48:26.743Z,23.50
2023-05-21T16:50:54.606Z,23.60
2023-05-21T16:53:22.587Z,23.30
2023-05-21T16:55:50.549Z,23.40
2023-05-21T16:58:18.913Z,23.20
2023-05-21T17:00:48.663Z,23.20
2023-05-21T17:03:16.810Z,23.30
2023-05-21T17:05:44.717Z,23.40
2023-05-21T17:08:12.577Z,23.30
2023-05-21T17:10:40.392Z,23.30
2023-05-21T17:13:18.323Z,23.50
2023-05-21T17:15:51.770Z,23.30
2023-05-21T17:18:19.735Z,23.20
2023-05-21T17:20:47.607Z,23.10
2023-05-21T17:23:15.631Z,22.80
2023-05-21T17:25:43.542Z,23.00
2023-05-21T17:28:11.530Z,23.20
2023-05-21T17:30:39.922Z,22.90
2023-05-21T17:33:10.256Z,22.90
2023-05-21T17:35:38.726Z,22.90
2023-05-21T17:38:06.976Z,22.90
2023-05-21T17:40:34.814Z,22.80
2023-05-21T17:43:04.134Z,22.70
2023-05-21T17:45:31.967Z,22.80
2023-05-21T17:48:00.492Z,23.20
2023-05-21T17:50:29.996Z,22.50
2023-05-21T17:52:57.797Z,22.50
2023-05-21T17:55:25.654Z,22.40
2023-05-21T17:57:53.468Z,22.40
2023-05-21T18:00:21.852Z,22.30
2023-05-21T18:02:49.719Z,22.20
2023-05-21T18:05:17.637Z,22.20
2023-05-21T18:07:46.813Z,22.20
2023-05-21T18:10:15.283Z,22.20
2023-05-21T18:12:43.717Z,22.10
2023-05-21T18:15:11.984Z,21.90
2023-05-21T18:17:39.929Z,21.90
2023-05-21T18:20:09.388Z,21.80
2023-05-21T18:22:37.251Z,21.80
2023-05-21T18:25:07.506Z,21.80
2023-05-21T18:27:35.439Z,21.60
2023-05-21T18:30:06.139Z,21.50
2023-05-21T18:32:34.788Z,21.50
2023-05-21T18:35:02.732Z,21.50
2023-05-21T18:37:30.575Z,21.40
2023-05-21T18:39:58.395Z,21.30
2023-05-21T18:42:28.114Z,21.30
2023-05-21T18:44:55.977Z,21.10
2023-05-21T18:47:23.928Z,21.10
2023-05-21T18:49:51.941Z,21.20
2023-05-21T18:52:19.727Z,21.10
2023-05-21T18:54:47.538Z,21.10
2023-05-21T18:57:15.458Z,20.90
2023-05-21T18:59:44.702Z,20.90
2023-05-21T19:02:12.666Z,20.80
2023-05-21T19:04:40.517Z,21.10
2023-05-21T19:07:08.364Z,20.90
2023-05-21T19:09:37.532Z,20.90
2023-05-21T19:12:06.116Z,20.60
2023-05-21T19:14:33.941Z,20.60
2023-05-21T19:17:03.272Z,20.70
2023-05-21T19:19:31.215Z,20.70
2023-05-21T19:21:59.248Z,20.50
2023-05-21T19:24:27.041Z,20.50
2023-05-21T19:26:54.898Z,20.40
2023-05-21T19:29:22.675Z,20.40
2023-05-21T19:31:54.833Z,20.40
2023-05-21T19:34:24.205Z,20.40
2023-05-21T19:36:53.687Z,20.30
2023-05-21T19:39:22.018Z,20.30
2023-05-21T19:41:49.906Z,20.30
2023-05-21T19:44:18.111Z,20.20
2023-05-21T19:46:45.931Z,20.10
2023-05-21T19:49:15.673Z,19.90
2023-05-21T19:51:44.892Z,19.80
2023-05-21T19:54:12.761Z,19.90
2023-05-21T19:56:40.631Z,20.00
2023-05-21T19:59:08.487Z,19.90
2023-05-21T20:01:39.231Z,19.90
2023-05-21T20:04:07.558Z,20.10
2023-05-21T20:06:35.513Z,20.00
2023-05-21T20:09:05.220Z,19.90
2023-05-21T20:11:33.259Z,19.80
2023-05-21T20:14:02.132Z,19.90
2023-05-21T20:16:30.512Z,20.20
2023-05-21T20:18:58.629Z,20.00
2023-05-21T20:21:26.483Z,19.90
2023-05-21T20:23:54.665Z,20.00
2023-05-21T20:26:26.102Z,20.00
2023-05-21T20:28:54.009Z,20.20
2023-05-21T20:31:22.476Z,20.20
2023-05-21T20:33:50.818Z,20.10
2023-05-21T20:36:20.986Z,19.60
2023-05-21T20:38:48.821Z,19.90
2023-05-21T20:41:16.660Z,19.90
2023-05-21T20:43:46.302Z,19.80
2023-05-21T20:46:14.192Z,20.20
2023-05-21T20:48:43.402Z,20.20
2023-05-21T20:51:11.322Z,20.10
2023-05-21T20:53:39.149Z,20.20
2023-05-21T20:56:08.109Z,20.30
2023-05-21T20:58:36.256Z,20.30
2023-05-21T21:01:05.489Z,20.30
2023-05-21T21:03:34.091Z,20.20
2023-05-21T21:06:02.908Z,20.10
2023-05-21T21:08:30.715Z,20.10
2023-05-21T21:10:58.518Z,20.10
2023-05-21T21:13:26.398Z,20.20
2023-05-21T21:15:54.241Z,20.10
2023-05-21T21:18:23.404Z,20.00
2023-05-21T21:20:51.227Z,20.00
2023-05-21T21:23:19.073Z,20.00
2023-05-21T21:25:47.120Z,19.90
2023-05-21T21:28:14.975Z,19.90
2023-05-21T21:30:42.765Z,19.90
2023-05-21T21:33:11.198Z,19.90
2023-05-21T21:35:42.046Z,19.90
2023-05-21T21:38:09.852Z,19.80
2023-05-21T21:40:37.902Z,19.80
2023-05-21T21:43:06.013Z,19.70
2023-05-21T21:45:33.968Z,19.70
2023-05-21T21:48:01.860Z,19.60
2023-05-21T21:50:29.677Z,19.60
2023-05-21T21:52:59.793Z,19.60
2023-05-21T21:55:27.712Z,19.50
2023-05-21T21:57:55.680Z,19.50
2023-05-21T22:00:26.525Z,19.40
2023-05-21T22:02:54.725Z,19.40
2023-05-21T22:05:22.634Z,19.40
2023-05-21T22:07:50.457Z,19.40
2023-05-21T22:10:19.913Z,19.40
2023-05-21T22:12:47.822Z,19.30
2023-05-21T22:15:19.952Z,19.30
2023-05-21T22:17:48.671Z,19.10
2023-05-21T22:20:17.401Z,19.10
2023-05-21T22:22:45.858Z,19.20
2023-05-21T22:25:13.791Z,19.10
2023-05-21T22:27:43.222Z,19.10
2023-05-21T22:30:11.819Z,19.10
2023-05-21T22:32:39.735Z,19.10
2023-05-21T22:35:08.494Z,19.10
2023-05-21T22:37:37.217Z,19.00
2023-05-21T22:40:06.196Z,19.00
2023-05-21T22:42:34.970Z,19.00
2023-05-21T22:45:04.821Z,18.90
2023-05-21T22:47:32.677Z,18.80
2023-05-21T22:50:01.305Z,18.70
2023-05-21T22:52:29.161Z,18.70
2023-05-21T22:54:57.821Z,18.70
2023-05-21T22:57:25.728Z,18.70
2023-05-21T23:02:37.270Z,18.70
2023-05-21T23:05:05.928Z,18.60
2023-05-21T23:07:33.771Z,18.60
2023-05-21T23:10:01.583Z,18.50
2023-05-21T23:12:29.452Z,18.50
2023-05-21T23:14:57.307Z,18.50
2023-05-21T23:17:25.274Z,18.40
2023-05-21T23:19:54.533Z,18.40
2023-05-21T23:22:22.568Z,18.40
2023-05-21T23:24:50.993Z,18.40
2023-05-21T23:27:18.830Z,18.30
2023-05-21T23:29:46.622Z,18.30
2023-05-21T23:32:14.527Z,18.20
2023-05-21T23:34:42.850Z,18.20
2023-05-21T23:37:11.995Z,18.20
2023-05-21T23:39:39.805Z,18.10
2023-05-21T23:42:08.184Z,18.00
2023-05-21T23:44:35.998Z,18.00
2023-05-21T23:47:03.840Z,18.00
2023-05-21T23:49:31.645Z,18.00
2023-05-21T23:51:59.760Z,18.00
2023-05-21T23:54:29.084Z,17.90
2023-05-21T23:56:56.881Z,17.90
2023-05-21T23:59:24.689Z,17.90
